Time;durP1;ratioP1;P1;durP2;ratioP2;P2;SDS_P1;SDS_P2;PMS_P1;PMS_P2;Temp;Humidity;BMP_temperature;BMP_pressure;BME280_temperature;BME280_humidity;BME280_pressure;Samples;Min_cycle;Max_cycle;Signal;HPM_P1;HPM_P2
2022/05/14 00:00:51;;;;;;;7.28;3.63;;;;;;;;;;4879459;29;20105;-56
2022/05/14 00:03:17;;;;;;;7.68;3.60;;;;;;;;;;4879607;29;20092;-59
2022/05/14 00:05:43;;;;;;;6.57;3.67;;;;;;;;;;4879711;29;20452;-57
2022/05/14 00:08:10;;;;;;;6.90;3.13;;;;;;;;;;4879130;29;20058;-59
2022/05/14 00:13:03;;;;;;;7.28;3.55;;;;;;;;;;4879056;29;20032;-57
2022/05/14 00:13:23;;;;;;;10.02;3.83;;;;;;;;;;4879157;29;20048;-57
2022/05/14 00:15:49;;;;;;;8.00;3.85;;;;;;;;;;4879302;29;20060;-57
2022/05/14 00:18:15;;;;;;;7.53;3.97;;;;;;;;;;4879370;29;20045;-57
2022/05/14 00:20:41;;;;;;;5.45;3.53;;;;;;;;;;4879157;29;20033;-58
2022/05/14 00:23:07;;;;;;;7.38;3.60;;;;;;;;;;4878956;29;20029;-56
2022/05/14 00:25:34;;;;;;;7.15;3.80;;;;;;;;;;4879055;29;20032;-56
2022/05/14 00:28:01;;;;;;;5.05;3.67;;;;;;;;;;4878712;29;20025;-56
2022/05/14 00:30:29;;;;;;;5.53;3.28;;;;;;;;;;4878765;29;20504;-57
2022/05/14 00:32:55;;;;;;;6.57;3.42;;;;;;;;;;4878666;29;20375;-56
2022/05/14 00:35:22;;;;;;;7.47;3.63;;;;;;;;;;4878799;29;20401;-70
2022/05/14 00:37:48;;;;;;;6.97;3.63;;;;;;;;;;4878734;29;20029;-57
2022/05/14 00:40:34;;;;;;;5.18;3.20;;;;;;;;;;4878617;29;20048;-57
2022/05/14 00:43:01;;;;;;;6.00;3.35;;;;;;;;;;4878647;29;20454;-57
2022/05/14 00:45:28;;;;;;;6.07;3.65;;;;;;;;;;4878710;29;20089;-56
2022/05/14 00:47:55;;;;;;;6.55;3.45;;;;;;;;;;4878820;29;20092;-56
2022/05/14 00:50:27;;;;;;;8.07;3.60;;;;;;;;;;4878860;29;20397;-74
2022/05/14 00:52:58;;;;;;;6.57;3.65;;;;;;;;;;4878789;29;20422;-67
2022/05/14 00:55:25;;;;;;;4.70;3.40;;;;;;;;;;4878838;29;20111;-57
2022/05/14 00:57:51;;;;;;;6.00;3.40;;;;;;;;;;4878547;29;20056;-57
2022/05/14 01:00:19;;;;;;;8.55;3.65;;;;;;;;;;4878389;29;20041;-57
2022/05/14 01:02:45;;;;;;;4.07;3.03;;;;;;;;;;4878552;29;20561;-56
2022/05/14 01:05:12;;;;;;;4.82;3.40;;;;;;;;;;4878446;29;20051;-56
2022/05/14 01:07:40;;;;;;;7.63;3.80;;;;;;;;;;4878358;29;20476;-56
2022/05/14 01:10:09;;;;;;;5.00;3.30;;;;;;;;;;4878597;29;20153;-57
2022/05/14 01:12:36;;;;;;;8.90;3.35;;;;;;;;;;4878369;29;20103;-57
2022/05/14 01:15:11;;;;;;;5.15;3.38;;;;;;;;;;4878256;29;20120;-71
2022/05/14 01:17:37;;;;;;;10.93;3.45;;;;;;;;;;4878332;29;20033;-59
2022/05/14 01:20:04;;;;;;;8.27;3.40;;;;;;;;;;4878119;29;20108;-57
2022/05/14 01:22:48;;;;;;;6.03;3.00;;;;;;;;;;4877756;29;20397;-58
2022/05/14 01:28:03;;;;;;;7.32;3.47;;;;;;;;;;4878050;29;20096;-74
2022/05/14 01:30:30;;;;;;;6.00;3.15;;;;;;;;;;4877742;29;20033;-57
2022/05/14 01:33:05;;;;;;;7.35;3.50;;;;;;;;;;4878143;29;20036;-56
2022/05/14 01:35:32;;;;;;;4.65;2.88;;;;;;;;;;4877991;29;20478;-57
2022/05/14 01:37:58;;;;;;;5.78;3.45;;;;;;;;;;4877781;29;20032;-56
2022/05/14 01:40:24;;;;;;;6.60;3.30;;;;;;;;;;4877779;29;20078;-56
2022/05/14 01:42:50;;;;;;;4.95;3.08;;;;;;;;;;4877486;29;20025;-57
2022/05/14 01:45:17;;;;;;;9.27;3.10;;;;;;;;;;4877345;29;20033;-62
2022/05/14 01:47:43;;;;;;;5.20;3.20;;;;;;;;;;4877678;29;20021;-56
2022/05/14 01:50:09;;;;;;;10.18;3.75;;;;;;;;;;4877509;29;20164;-56
2022/05/14 01:52:35;;;;;;;7.10;3.97;;;;;;;;;;4877460;29;20104;-57
2022/05/14 01:55:01;;;;;;;6.07;3.40;;;;;;;;;;4877583;29;20156;-56
2022/05/14 01:57:27;;;;;;;4.95;2.78;;;;;;;;;;4877581;29;20025;-57
2022/05/14 01:59:53;;;;;;;6.47;2.80;;;;;;;;;;4877189;29;20035;-56
2022/05/14 02:02:19;;;;;;;4.05;2.70;;;;;;;;;;4878771;29;20116;-56
2022/05/14 02:04:45;;;;;;;6.43;3.05;;;;;;;;;;4879173;29;20037;-56
2022/05/14 02:07:11;;;;;;;13.13;3.67;;;;;;;;;;4877521;29;20525;-56
2022/05/14 02:09:37;;;;;;;6.90;2.80;;;;;;;;;;4877584;29;20092;-56
2022/05/14 02:12:04;;;;;;;7.38;3.00;;;;;;;;;;4877145;29;20489;-56
2022/05/14 02:14:30;;;;;;;7.63;2.90;;;;;;;;;;4877042;29;20116;-56
2022/05/14 02:16:57;;;;;;;6.88;2.88;;;;;;;;;;4877279;29;20048;-56
2022/05/14 02:19:23;;;;;;;8.00;3.17;;;;;;;;;;4877310;29;20032;-56
2022/05/14 02:21:49;;;;;;;5.32;3.22;;;;;;;;;;4877078;29;20027;-57
2022/05/14 02:24:15;;;;;;;8.63;3.40;;;;;;;;;;4877350;29;20037;-56
2022/05/14 02:26:41;;;;;;;6.93;3.25;;;;;;;;;;4877484;29;20141;-56
2022/05/14 02:29:08;;;;;;;8.68;3.38;;;;;;;;;;4876558;29;20049;-57
2022/05/14 02:31:34;;;;;;;8.23;3.50;;;;;;;;;;4877265;29;20025;-56
2022/05/14 02:34:00;;;;;;;9.70;3.50;;;;;;;;;;4876968;29;20108;-57
2022/05/14 02:36:26;;;;;;;6.63;3.10;;;;;;;;;;4880438;29;20036;-56
2022/05/14 02:38:52;;;;;;;10.73;3.83;;;;;;;;;;4881074;29;20055;-56
2022/05/14 02:41:18;;;;;;;6.90;3.22;;;;;;;;;;4880923;29;20032;-56
2022/05/14 02:43:44;;;;;;;9.80;3.50;;;;;;;;;;4880932;29;20060;-56
2022/05/14 02:46:12;;;;;;;7.50;3.40;;;;;;;;;;4880954;29;20033;-56
2022/05/14 02:48:38;;;;;;;6.50;3.25;;;;;;;;;;4881041;29;20501;-57
2022/05/14 02:51:05;;;;;;;8.48;3.10;;;;;;;;;;4880834;29;20159;-57
2022/05/14 02:53:31;;;;;;;10.10;3.35;;;;;;;;;;4880876;29;20116;-59
2022/05/14 02:55:57;;;;;;;6.28;3.08;;;;;;;;;;4880868;29;20029;-57
2022/05/14 03:01:08;;;;;;;6.32;3.28;;;;;;;;;;4881002;29;20104;-57
2022/05/14 03:03:34;;;;;;;5.55;2.97;;;;;;;;;;4880490;29;20039;-56
2022/05/14 03:06:01;;;;;;;7.45;3.10;;;;;;;;;;4880638;29;20093;-56
2022/05/14 03:08:27;;;;;;;6.45;3.08;;;;;;;;;;4880256;29;20029;-56
2022/05/14 03:10:53;;;;;;;6.57;3.80;;;;;;;;;;4880436;29;20037;-56
2022/05/14 03:13:19;;;;;;;6.53;3.22;;;;;;;;;;4880442;29;20040;-56
2022/05/14 03:15:45;;;;;;;6.55;3.40;;;;;;;;;;4880229;29;20033;-60
2022/05/14 03:18:11;;;;;;;6.28;3.53;;;;;;;;;;4880234;29;20033;-56
2022/05/14 03:20:37;;;;;;;6.88;3.58;;;;;;;;;;4880211;29;20061;-56
2022/05/14 03:23:03;;;;;;;9.20;4.10;;;;;;;;;;4880217;29;20033;-66
2022/05/14 03:25:31;;;;;;;7.18;3.45;;;;;;;;;;4880030;29;20029;-73
2022/05/14 03:27:57;;;;;;;5.88;3.97;;;;;;;;;;4879827;29;20028;-56
2022/05/14 03:30:23;;;;;;;7.88;3.63;;;;;;;;;;4879796;29;20116;-57
2022/05/14 03:32:49;;;;;;;7.65;3.40;;;;;;;;;;4879715;29;20041;-57
2022/05/14 03:35:15;;;;;;;6.32;3.40;;;;;;;;;;4880005;29;20421;-72
2022/05/14 03:37:42;;;;;;;8.18;3.88;;;;;;;;;;4879948;29;20028;-56
2022/05/14 03:40:09;;;;;;;10.13;3.70;;;;;;;;;;4879951;29;20533;-57
2022/05/14 03:42:36;;;;;;;9.73;3.75;;;;;;;;;;4879841;29;20039;-56
2022/05/14 03:45:02;;;;;;;6.68;3.65;;;;;;;;;;4879477;29;20474;-56
2022/05/14 03:47:29;;;;;;;8.82;3.63;;;;;;;;;;4880085;29;20053;-74
2022/05/14 03:49:55;;;;;;;7.45;3.83;;;;;;;;;;4879791;29;20033;-56
2022/05/14 03:52:21;;;;;;;8.25;3.70;;;;;;;;;;4879803;29;20048;-57
2022/05/14 03:54:47;;;;;;;8.80;3.50;;;;;;;;;;4879805;29;20115;-56
2022/05/14 03:57:14;;;;;;;7.18;3.65;;;;;;;;;;4879450;29;20025;-56
2022/05/14 03:59:40;;;;;;;6.93;3.45;;;;;;;;;;4879557;29;20478;-59
2022/05/14 04:02:06;;;;;;;7.03;3.50;;;;;;;;;;4879624;29;20044;-59
2022/05/14 04:04:32;;;;;;;7.18;3.60;;;;;;;;;;4879421;29;20037;-58
2022/05/14 04:06:59;;;;;;;7.10;3.65;;;;;;;;;;4878990;29;20049;-57
2022/05/14 04:09:25;;;;;;;7.75;4.07;;;;;;;;;;4879344;29;20060;-56
2022/05/14 04:11:52;;;;;;;5.10;3.72;;;;;;;;;;4879599;29;20025;-76
2022/05/14 04:14:18;;;;;;;10.60;4.43;;;;;;;;;;4879222;29;20028;-56
2022/05/14 04:16:45;;;;;;;10.38;4.25;;;;;;;;;;4879402;29;20073;-57
2022/05/14 04:19:11;;;;;;;6.60;4.07;;;;;;;;;;4879424;29;20541;-62
2022/05/14 04:21:38;;;;;;;8.70;4.00;;;;;;;;;;4878730;29;20067;-73
2022/05/14 04:24:04;;;;;;;8.10;4.38;;;;;;;;;;4878947;29;20025;-56
2022/05/14 04:26:30;;;;;;;8.18;3.88;;;;;;;;;;4878829;29;20044;-57
2022/05/14 04:28:56;;;;;;;8.80;4.18;;;;;;;;;;4878684;29;20056;-58
2022/05/14 04:31:22;;;;;;;10.38;3.78;;;;;;;;;;4879064;29;20048;-58
2022/05/14 04:33:49;;;;;;;10.18;6.63;;;;;;;;;;4879034;29;20108;-57
2022/05/14 04:36:15;;;;;;;10.32;6.05;;;;;;;;;;4878863;29;20056;-59
2022/05/14 04:38:41;;;;;;;6.75;3.80;;;;;;;;;;4878930;29;20386;-58
2022/05/14 04:41:07;;;;;;;9.05;3.85;;;;;;;;;;4878866;29;20051;-57
2022/05/14 04:43:34;;;;;;;8.90;4.10;;;;;;;;;;4878684;29;20029;-58
2022/05/14 04:46:00;;;;;;;6.25;3.83;;;;;;;;;;4878376;29;20056;-58
2022/05/14 04:48:26;;;;;;;8.13;6.30;;;;;;;;;;4878689;29;20033;-58
2022/05/14 04:50:54;;;;;;;6.00;3.47;;;;;;;;;;4878566;29;20044;-57
2022/05/14 04:53:20;;;;;;;7.22;3.47;;;;;;;;;;4878630;29;20112;-67
2022/05/14 04:55:47;;;;;;;7.47;3.50;;;;;;;;;;4878451;29;20379;-58
2022/05/14 04:58:14;;;;;;;6.28;3.30;;;;;;;;;;4877255;29;20025;-57
2022/05/14 05:00:41;;;;;;;9.77;3.42;;;;;;;;;;4878163;29;20405;-58
2022/05/14 05:03:19;;;;;;;5.35;3.10;;;;;;;;;;4878030;29;20029;-59
2022/05/14 05:05:53;;;;;;;7.00;3.25;;;;;;;;;;4878066;29;20112;-58
2022/05/14 05:08:19;;;;;;;10.32;2.95;;;;;;;;;;4878102;29;20112;-64
2022/05/14 05:10:46;;;;;;;5.22;2.70;;;;;;;;;;4878467;29;20029;-61
2022/05/14 05:13:14;;;;;;;7.78;3.28;;;;;;;;;;4878161;29;20055;-65
2022/05/14 05:15:40;;;;;;;7.55;2.90;;;;;;;;;;4878287;29;20033;-58
2022/05/14 05:18:07;;;;;;;7.28;2.88;;;;;;;;;;4878184;29;20553;-58
2022/05/14 05:20:33;;;;;;;6.20;3.03;;;;;;;;;;4878099;29;20052;-58
2022/05/14 05:22:59;;;;;;;4.70;2.72;;;;;;;;;;4877779;29;20029;-57
2022/05/14 05:25:25;;;;;;;6.40;3.15;;;;;;;;;;4878019;29;20033;-64
2022/05/14 05:27:51;;;;;;;7.57;3.50;;;;;;;;;;4878240;29;20021;-61
2022/05/14 05:30:18;;;;;;;7.60;3.20;;;;;;;;;;4877465;29;20136;-61
2022/05/14 05:32:44;;;;;;;8.50;3.40;;;;;;;;;;4874368;29;20030;-59
2022/05/14 05:35:10;;;;;;;5.80;3.28;;;;;;;;;;4867714;29;20064;-65
2022/05/14 05:37:36;;;;;;;6.20;3.72;;;;;;;;;;4867726;29;20053;-68
2022/05/14 05:40:03;;;;;;;8.68;3.25;;;;;;;;;;4866269;29;20025;-60
2022/05/14 16:08:59;;;;;;;7.22;2.08;;;;;;;;;;4920713;24;20054;-58
2022/05/14 16:16:55;;;;;;;6.70;2.40;;;;;;;;;;4856643;29;20072;-59
2022/05/14 16:19:21;;;;;;;7.68;2.10;;;;;;;;;;4885786;29;20378;-61
2022/05/14 16:21:47;;;;;;;5.43;2.10;;;;;;;;;;4896765;29;20028;-58
2022/05/14 16:24:13;;;;;;;4.40;2.13;;;;;;;;;;4897473;29;20112;-59
2022/05/14 16:26:39;;;;;;;13.10;2.40;;;;;;;;;;4897667;29;20029;-57
2022/05/14 16:29:07;;;;;;;9.25;2.35;;;;;;;;;;4897546;29;20389;-58
2022/05/14 16:31:33;;;;;;;6.00;1.90;;;;;;;;;;4897165;29;20544;-60
2022/05/14 16:34:00;;;;;;;6.07;2.50;;;;;;;;;;4897026;29;20036;-57
2022/05/14 16:36:26;;;;;;;5.70;1.95;;;;;;;;;;4897067;29;20025;-58
2022/05/14 16:38:53;;;;;;;7.10;1.80;;;;;;;;;;4896707;29;20040;-58
2022/05/14 16:41:19;;;;;;;8.48;2.22;;;;;;;;;;4897115;29;20056;-57
2022/05/14 16:43:45;;;;;;;3.60;1.92;;;;;;;;;;4897325;29;20105;-57
2022/05/14 16:46:12;;;;;;;6.30;2.00;;;;;;;;;;4897424;29;20479;-58
2022/05/14 16:48:39;;;;;;;7.70;2.38;;;;;;;;;;4896987;29;20092;-64
2022/05/14 16:51:05;;;;;;;4.05;1.63;;;;;;;;;;4897205;29;20483;-59
2022/05/14 16:53:37;;;;;;;5.85;1.90;;;;;;;;;;4896194;29;20100;-58
2022/05/14 16:56:03;;;;;;;3.35;1.90;;;;;;;;;;4897179;29;20028;-58
2022/05/14 16:58:30;;;;;;;7.40;2.33;;;;;;;;;;4896645;29;20095;-57
2022/05/14 17:00:56;;;;;;;4.55;1.75;;;;;;;;;;4896870;29;20159;-57
2022/05/14 17:03:22;;;;;;;7.40;2.00;;;;;;;;;;4896800;29;20168;-58
2022/05/14 17:05:48;;;;;;;7.70;2.10;;;;;;;;;;4896744;29;20067;-62
2022/05/14 17:08:14;;;;;;;11.48;2.38;;;;;;;;;;4884363;29;20450;-58
2022/05/14 17:10:42;;;;;;;6.70;1.80;;;;;;;;;;4877646;29;20474;-58
2022/05/14 17:13:09;;;;;;;7.40;2.00;;;;;;;;;;4877791;29;20037;-60
2022/05/14 17:15:36;;;;;;;8.40;2.33;;;;;;;;;;4877842;29;20021;-59
2022/05/14 17:18:02;;;;;;;8.52;1.83;;;;;;;;;;4876709;29;20036;-65
2022/05/14 17:20:33;;;;;;;4.43;1.70;;;;;;;;;;4874582;29;20033;-61
2022/05/14 17:22:59;;;;;;;3.75;1.83;;;;;;;;;;4877803;29;20121;-59
2022/05/14 17:25:25;;;;;;;8.60;2.13;;;;;;;;;;4877744;29;20117;-58
2022/05/14 17:27:51;;;;;;;6.75;1.85;;;;;;;;;;4877952;29;20139;-59
2022/05/14 17:30:20;;;;;;;7.50;2.30;;;;;;;;;;4877829;29;20044;-59
2022/05/14 17:32:46;;;;;;;7.55;2.17;;;;;;;;;;4877800;29;20025;-59
2022/05/14 17:35:13;;;;;;;4.60;2.00;;;;;;;;;;4877832;29;20036;-59
2022/05/14 17:40:24;;;;;;;5.68;1.80;;;;;;;;;;4859251;29;20040;-60
2022/05/14 17:42:51;;;;;;;7.00;2.15;;;;;;;;;;4859149;29;20478;-62
2022/05/14 17:45:18;;;;;;;4.95;1.80;;;;;;;;;;4859319;29;20046;-59
2022/05/14 17:47:44;;;;;;;8.90;1.98;;;;;;;;;;4859121;29;20101;-59
2022/05/14 17:50:12;;;;;;;5.45;2.00;;;;;;;;;;4859331;29;20029;-59
2022/05/14 17:52:38;;;;;;;8.13;1.92;;;;;;;;;;4858691;29;20021;-68
2022/05/14 17:55:05;;;;;;;10.70;2.33;;;;;;;;;;4859169;29;20097;-65
2022/05/14 17:57:31;;;;;;;5.72;1.88;;;;;;;;;;4858993;29;20409;-58
2022/05/14 17:59:57;;;;;;;6.82;2.25;;;;;;;;;;4859357;29;20088;-58
2022/05/14 18:02:23;;;;;;;6.07;2.20;;;;;;;;;;4859081;29;20141;-58
2022/05/14 18:04:49;;;;;;;4.95;1.83;;;;;;;;;;4858813;29;20044;-64
2022/05/14 18:07:17;;;;;;;10.93;2.05;;;;;;;;;;4858323;29;20041;-57
2022/05/14 18:09:43;;;;;;;5.82;1.70;;;;;;;;;;4858903;29;20478;-58
2022/05/14 18:12:09;;;;;;;8.55;2.00;;;;;;;;;;4858803;29;20088;-58
2022/05/14 18:14:36;;;;;;;5.30;2.20;;;;;;;;;;4858853;29;20044;-58
2022/05/14 18:17:04;;;;;;;7.38;1.83;;;;;;;;;;4858812;29;20394;-59
2022/05/14 18:19:32;;;;;;;4.25;1.98;;;;;;;;;;4858336;29;20033;-57
2022/05/14 18:21:58;;;;;;;10.32;1.80;;;;;;;;;;4858294;29;20026;-58
2022/05/14 18:24:24;;;;;;;6.55;1.77;;;;;;;;;;4858369;29;20038;-57
2022/05/14 18:27:01;;;;;;;6.22;1.98;;;;;;;;;;4858480;29;20025;-58
2022/05/14 18:29:34;;;;;;;5.15;1.75;;;;;;;;;;4858479;29;20505;-58
2022/05/14 18:32:00;;;;;;;13.10;2.40;;;;;;;;;;4858400;29;20030;-63
2022/05/14 18:34:30;;;;;;;6.30;1.50;;;;;;;;;;4858270;29;20034;-57
2022/05/14 18:36:56;;;;;;;26.13;2.33;;;;;;;;;;4858183;29;20668;-59
2022/05/14 18:39:27;;;;;;;5.55;1.60;;;;;;;;;;4858024;29;20486;-58
2022/05/14 18:41:53;;;;;;;5.53;2.25;;;;;;;;;;4857604;29;20630;-58
2022/05/14 18:44:21;;;;;;;5.68;1.90;;;;;;;;;;4856274;29;20038;-60
2022/05/14 18:46:47;;;;;;;7.10;1.88;;;;;;;;;;4867795;29;20033;-68
2022/05/14 18:49:13;;;;;;;6.03;1.80;;;;;;;;;;4862443;29;20371;-59
2022/05/14 18:51:39;;;;;;;7.38;1.27;;;;;;;;;;4873241;29;20537;-70
2022/05/14 18:54:06;;;;;;;5.40;1.45;;;;;;;;;;4862545;29;20389;-59
2022/05/14 18:56:32;;;;;;;5.40;1.75;;;;;;;;;;4867957;29;20026;-58
2022/05/14 18:58:59;;;;;;;8.65;1.88;;;;;;;;;;4869312;29;20029;-58
2022/05/14 19:01:25;;;;;;;5.47;1.85;;;;;;;;;;4861312;29;20033;-58
2022/05/14 19:09:30;;;;;;;6.95;1.90;;;;;;;;;;4782773;30;20111;-59
2022/05/14 19:11:56;;;;;;;7.30;1.80;;;;;;;;;;4800771;29;20076;-60
2022/05/14 19:14:22;;;;;;;5.38;2.20;;;;;;;;;;4808818;29;20030;-61
2022/05/14 19:16:49;;;;;;;8.52;2.03;;;;;;;;;;4819409;29;20059;-61
2022/05/14 19:19:15;;;;;;;6.20;1.77;;;;;;;;;;4822358;29;20035;-60
2022/05/14 19:21:43;;;;;;;8.55;1.80;;;;;;;;;;4814841;29;20158;-63
2022/05/14 19:24:09;;;;;;;5.50;1.80;;;;;;;;;;4819320;29;20230;-58
2022/05/14 19:26:35;;;;;;;6.88;1.88;;;;;;;;;;4813457;29;20030;-58
2022/05/14 19:29:01;;;;;;;5.68;1.90;;;;;;;;;;4815120;29;20045;-66
2022/05/14 19:31:27;;;;;;;2.75;1.77;;;;;;;;;;4821454;29;20038;-65
2022/05/14 19:33:53;;;;;;;7.43;1.80;;;;;;;;;;4806413;29;20096;-63
2022/05/14 19:36:20;;;;;;;5.00;1.70;;;;;;;;;;4815141;29;20211;-58
2022/05/14 19:38:47;;;;;;;6.57;2.00;;;;;;;;;;4812365;29;20046;-58
2022/05/14 19:41:22;;;;;;;7.50;2.03;;;;;;;;;;4808293;29;20055;-67
2022/05/14 19:43:51;;;;;;;9.05;1.70;;;;;;;;;;4847660;29;20037;-62
2022/05/14 19:46:19;;;;;;;7.57;2.05;;;;;;;;;;4848728;29;20120;-62
2022/05/14 19:48:46;;;;;;;7.10;2.00;;;;;;;;;;4851274;29;20105;-67
2022/05/14 19:51:12;;;;;;;8.10;1.90;;;;;;;;;;4855465;29;20030;-58
2022/05/14 19:53:40;;;;;;;5.90;2.20;;;;;;;;;;4850264;29;20034;-59
2022/05/14 19:56:06;;;;;;;7.88;2.30;;;;;;;;;;4850958;29;20466;-58
2022/05/14 19:58:32;;;;;;;6.03;1.77;;;;;;;;;;4852836;29;20030;-65
2022/05/14 20:00:59;;;;;;;11.50;2.50;;;;;;;;;;4853849;29;20829;-58
2022/05/14 20:03:25;;;;;;;6.28;1.95;;;;;;;;;;4845703;29;20034;-58
2022/05/14 20:05:52;;;;;;;5.18;1.90;;;;;;;;;;4840158;29;20423;-69
2022/05/14 20:08:18;;;;;;;4.85;2.00;;;;;;;;;;4858732;29;20056;-57
2022/05/14 20:10:45;;;;;;;6.88;2.47;;;;;;;;;;4869561;29;20117;-62
2022/05/14 20:13:12;;;;;;;5.85;2.47;;;;;;;;;;4873514;29;20282;-59
2022/05/14 20:15:38;;;;;;;8.85;2.40;;;;;;;;;;4863399;29;20166;-66
2022/05/14 20:20:50;;;;;;;8.13;2.67;;;;;;;;;;4870658;29;20537;-61
2022/05/14 20:23:24;;;;;;;5.00;2.35;;;;;;;;;;4864754;29;20034;-59
2022/05/14 20:25:52;;;;;;;9.57;2.60;;;;;;;;;;4875604;29;20393;-70
2022/05/14 20:28:19;;;;;;;5.53;2.13;;;;;;;;;;4865736;29;20024;-61
2022/05/14 20:30:45;;;;;;;7.70;2.40;;;;;;;;;;4868770;29;20032;-59
2022/05/14 20:33:12;;;;;;;7.53;2.40;;;;;;;;;;4872431;29;20033;-63
2022/05/14 20:35:39;;;;;;;6.55;2.03;;;;;;;;;;4862646;29;20037;-57
2022/05/14 20:38:06;;;;;;;4.93;2.10;;;;;;;;;;4873757;29;20510;-68
2022/05/14 20:40:32;;;;;;;5.78;2.05;;;;;;;;;;4867878;29;20493;-59
2022/05/14 20:42:59;;;;;;;10.02;2.20;;;;;;;;;;4866584;29;20057;-58
2022/05/14 20:45:25;;;;;;;9.48;2.10;;;;;;;;;;4873917;29;20033;-64
2022/05/14 20:47:51;;;;;;;6.45;2.80;;;;;;;;;;4862721;29;20028;-62
2022/05/14 20:50:17;;;;;;;8.68;2.63;;;;;;;;;;4872062;29;20040;-63
2022/05/14 20:52:43;;;;;;;9.35;2.90;;;;;;;;;;4868505;29;20036;-66
2022/05/14 20:55:12;;;;;;;7.07;2.30;;;;;;;;;;4865575;29;20498;-58
2022/05/14 20:57:38;;;;;;;8.85;2.20;;;;;;;;;;4874158;29;20033;-70
2022/05/14 21:00:05;;;;;;;7.53;2.55;;;;;;;;;;4863790;29;20029;-68
2022/05/14 21:02:32;;;;;;;8.73;2.55;;;;;;;;;;4870258;29;20387;-65
2022/05/14 21:04:58;;;;;;;7.10;3.17;;;;;;;;;;4870610;29;20530;-64
2022/05/14 21:07:24;;;;;;;10.27;4.10;;;;;;;;;;4862934;29;20061;-63
2022/05/14 21:09:50;;;;;;;14.60;8.82;;;;;;;;;;4877273;29;20396;-68
2022/05/14 21:12:17;;;;;;;8.95;3.60;;;;;;;;;;4877901;29;20105;-69
2022/05/14 21:14:43;;;;;;;11.63;4.07;;;;;;;;;;4878064;29;20073;-60
2022/05/14 21:17:09;;;;;;;12.07;3.92;;;;;;;;;;4875120;29;20033;-58
2022/05/14 21:19:35;;;;;;;10.68;3.05;;;;;;;;;;4878422;29;20033;-57
2022/05/14 21:22:02;;;;;;;8.82;3.20;;;;;;;;;;4877754;29;20025;-57
2022/05/14 21:24:28;;;;;;;10.05;2.97;;;;;;;;;;4878158;29;20051;-58
2022/05/14 21:26:54;;;;;;;10.25;3.50;;;;;;;;;;4877931;29;20497;-61
2022/05/14 21:29:20;;;;;;;9.20;3.20;;;;;;;;;;4878146;29;20041;-70
2022/05/14 21:31:46;;;;;;;8.75;3.50;;;;;;;;;;4878128;29;20112;-60
2022/05/14 21:39:43;;;;;;;8.68;2.70;;;;;;;;;;4866043;29;20101;-59
2022/05/14 21:42:10;;;;;;;10.45;3.15;;;;;;;;;;4869564;29;20446;-59
2022/05/14 21:44:36;;;;;;;9.10;3.92;;;;;;;;;;4863880;29;20129;-73
2022/05/14 21:47:03;;;;;;;12.70;7.07;;;;;;;;;;4859056;29;20766;-63
2022/05/14 21:49:29;;;;;;;8.93;4.53;;;;;;;;;;4858904;29;20037;-60
2022/05/14 21:51:57;;;;;;;14.43;3.88;;;;;;;;;;4858787;29;20034;-71
2022/05/14 21:54:23;;;;;;;8.35;2.80;;;;;;;;;;4865913;29;20492;-59
2022/05/14 21:56:49;;;;;;;7.30;2.67;;;;;;;;;;4858439;29;20104;-70
2022/05/14 21:59:15;;;;;;;4.90;2.40;;;;;;;;;;4858938;29;20053;-60
2022/05/14 22:02:00;;;;;;;10.00;2.67;;;;;;;;;;4858398;29;20076;-58
2022/05/14 22:04:26;;;;;;;9.95;3.55;;;;;;;;;;4858533;29;20522;-60
2022/05/14 22:06:52;;;;;;;7.03;3.03;;;;;;;;;;4857586;29;20117;-59
2022/05/14 22:09:21;;;;;;;6.35;2.92;;;;;;;;;;4858568;29;20041;-58
2022/05/14 22:11:47;;;;;;;8.45;2.53;;;;;;;;;;4860087;29;20060;-59
2022/05/14 22:14:14;;;;;;;6.93;2.50;;;;;;;;;;4865093;29;20109;-59
2022/05/14 22:16:40;;;;;;;8.95;2.92;;;;;;;;;;4866047;29;20112;-59
2022/05/14 22:19:06;;;;;;;6.82;2.88;;;;;;;;;;4860699;29;20079;-62
2022/05/14 22:21:32;;;;;;;6.90;2.70;;;;;;;;;;4858635;29;20029;-71
2022/05/14 22:23:58;;;;;;;8.23;2.95;;;;;;;;;;4860805;29;20036;-62
2022/05/14 22:26:24;;;;;;;9.00;3.00;;;;;;;;;;4862628;29;20037;-65
2022/05/14 22:28:50;;;;;;;10.80;3.05;;;;;;;;;;4877077;29;20021;-57
2022/05/14 22:31:16;;;;;;;6.95;3.13;;;;;;;;;;4877070;29;20108;-60
2022/05/14 22:33:42;;;;;;;11.10;3.35;;;;;;;;;;4876873;29;20048;-69
2022/05/14 22:36:08;;;;;;;11.82;3.45;;;;;;;;;;4877033;29;20029;-58
2022/05/14 22:38:35;;;;;;;9.35;3.72;;;;;;;;;;4876051;29;20093;-58
2022/05/14 22:41:01;;;;;;;8.82;3.67;;;;;;;;;;4860742;29;20089;-69
2022/05/14 22:43:33;;;;;;;15.07;6.90;;;;;;;;;;4877184;29;20367;-69
2022/05/14 22:46:00;;;;;;;7.50;3.80;;;;;;;;;;4876780;29;20052;-65
2022/05/14 22:48:27;;;;;;;9.10;3.55;;;;;;;;;;4877027;29;20025;-66
2022/05/14 22:50:53;;;;;;;10.57;3.50;;;;;;;;;;4876948;29;20397;-61
2022/05/14 22:53:20;;;;;;;13.15;3.35;;;;;;;;;;4879792;29;20052;-69
2022/05/14 22:55:47;;;;;;;9.82;3.88;;;;;;;;;;4880486;29;20029;-58
2022/05/14 22:58:14;;;;;;;10.10;3.15;;;;;;;;;;4880726;29;20381;-58
2022/05/14 23:00:42;;;;;;;13.02;3.70;;;;;;;;;;4880416;29;20025;-60
2022/05/14 23:03:08;;;;;;;10.68;3.30;;;;;;;;;;4880296;29;20036;-65
2022/05/14 23:05:34;;;;;;;9.93;3.47;;;;;;;;;;4880535;29;20124;-59
2022/05/14 23:08:00;;;;;;;13.88;7.10;;;;;;;;;;4879919;29;20080;-59
2022/05/14 23:10:27;;;;;;;9.45;3.97;;;;;;;;;;4878159;29;20788;-63
2022/05/14 23:12:53;;;;;;;8.77;3.90;;;;;;;;;;4874187;29;20043;-63
2022/05/14 23:15:20;;;;;;;8.55;3.28;;;;;;;;;;4880262;29;20040;-62
2022/05/14 23:17:46;;;;;;;11.43;3.75;;;;;;;;;;4879979;29;20029;-60
2022/05/14 23:20:14;;;;;;;10.98;3.55;;;;;;;;;;4880182;29;20073;-65
2022/05/14 23:22:41;;;;;;;10.35;3.45;;;;;;;;;;4879652;29;20055;-61
2022/05/14 23:25:08;;;;;;;9.85;3.33;;;;;;;;;;4879979;29;20124;-65
2022/05/14 23:27:34;;;;;;;12.48;3.72;;;;;;;;;;4879849;29;20025;-59
2022/05/14 23:30:00;;;;;;;8.63;3.83;;;;;;;;;;4880076;29;20033;-64
2022/05/14 23:32:26;;;;;;;21.92;11.07;;;;;;;;;;4879550;29;20037;-58
2022/05/14 23:34:53;;;;;;;9.48;4.30;;;;;;;;;;4880231;29;20040;-63
2022/05/14 23:37:19;;;;;;;10.18;3.42;;;;;;;;;;4879385;29;20473;-58
2022/05/14 23:39:46;;;;;;;7.57;3.55;;;;;;;;;;4879656;29;20044;-58
2022/05/14 23:42:12;;;;;;;12.30;3.00;;;;;;;;;;4880066;29;20040;-58
2022/05/14 23:44:39;;;;;;;11.10;3.45;;;;;;;;;;4880002;29;20120;-63
2022/05/14 23:47:05;;;;;;;10.38;3.67;;;;;;;;;;4879976;29;20057;-57
2022/05/14 23:49:32;;;;;;;9.93;3.55;;;;;;;;;;4880270;29;20132;-63
2022/05/14 23:51:59;;;;;;;10.05;3.38;;;;;;;;;;4862759;29;20037;-58
2022/05/14 23:54:28;;;;;;;12.82;3.80;;;;;;;;;;4880025;29;20032;-60
2022/05/14 23:56:54;;;;;;;8.57;3.15;;;;;;;;;;4879904;29;20481;-63
